Time;durP1;ratioP1;P1;durP2;ratioP2;P2;SDS_P1;SDS_P2;PMS_P1;PMS_P2;Temp;Humidity;BMP_temperature;BMP_pressure;BME280_temperature;BME280_humidity;BME280_pressure;Samples;Min_cycle;Max_cycle;Signal;HPM_P1;HPM_P2
2021/01/25 00:01:54;;;;;;;7.57;3.15;;;;;;;-1.48;81.30;97177.81;4988366;28;20154;-71
2021/01/25 00:04:19;;;;;;;7.55;3.28;;;;;;;-1.43;80.83;97170.19;4993175;28;20031;-71
2021/01/25 00:06:45;;;;;;;7.22;3.53;;;;;;;-1.41;81.13;97171.69;4979931;28;20031;-74
2021/01/25 00:09:10;;;;;;;9.40;3.10;;;;;;;-1.38;81.66;97165.22;4995594;28;20440;-71
2021/01/25 00:11:35;;;;;;;8.98;3.38;;;;;;;-1.37;81.54;97157.06;4992128;28;20073;-71
2021/01/25 00:14:01;;;;;;;6.28;3.17;;;;;;;-1.32;81.66;97156.56;4995962;28;20025;-71
2021/01/25 00:16:26;;;;;;;8.35;3.38;;;;;;;-1.25;81.22;97156.72;4996019;28;20077;-71
2021/01/25 00:18:51;;;;;;;6.40;3.08;;;;;;;-1.18;80.90;97145.28;4995774;28;20030;-71
2021/01/25 00:21:17;;;;;;;7.20;3.20;;;;;;;-1.14;81.03;97146.56;4984914;28;20097;-71
2021/01/25 00:23:44;;;;;;;6.82;3.30;;;;;;;-1.05;81.44;97151.84;4994418;28;20480;-73
2021/01/25 00:26:09;;;;;;;8.68;3.15;;;;;;;-1.07;81.20;97154.69;4995316;28;20461;-71
2021/01/25 00:28:34;;;;;;;5.35;2.72;;;;;;;-0.83;77.44;97145.81;5002165;28;20021;-71
2021/01/25 00:31:00;;;;;;;4.63;2.10;;;;;;;-0.68;75.90;97152.06;4986233;28;20396;-71
2021/01/25 00:33:25;;;;;;;3.97;2.20;;;;;;;-0.53;73.89;97136.19;4994913;28;20033;-70
2021/01/25 00:35:50;;;;;;;4.63;2.35;;;;;;;-0.43;74.47;97141.28;4995887;28;20105;-73
2021/01/25 00:38:18;;;;;;;4.50;2.30;;;;;;;-0.52;74.36;97132.53;4990726;28;20142;-70
2021/01/25 00:40:43;;;;;;;3.28;1.95;;;;;;;-0.58;73.67;97113.81;5007567;28;20007;-73
2021/01/25 00:43:09;;;;;;;4.10;2.13;;;;;;;-0.52;72.66;97113.94;5004945;28;20030;-75
2021/01/25 00:45:34;;;;;;;6.28;2.00;;;;;;;-0.49;72.99;97105.63;5027547;28;20018;-77
2021/01/25 00:47:59;;;;;;;5.32;2.20;;;;;;;-0.32;73.37;97126.78;5019519;28;20069;-70
2021/01/25 00:50:25;;;;;;;4.82;1.50;;;;;;;-0.44;73.51;97102.44;5019676;28;20026;-73
2021/01/25 00:52:50;;;;;;;3.88;1.88;;;;;;;-0.34;73.81;97111.03;5018514;28;20030;-74
2021/01/25 00:55:16;;;;;;;3.67;2.22;;;;;;;-0.45;74.21;97109.59;5006142;28;20473;-71
2021/01/25 00:57:42;;;;;;;2.55;1.50;;;;;;;-0.53;74.56;97090.22;4979673;28;20026;-73
2021/01/25 01:00:10;;;;;;;4.50;2.13;;;;;;;-0.48;74.76;97098.47;4983285;28;20030;-70
2021/01/25 01:02:36;;;;;;;3.13;1.75;;;;;;;-0.67;75.84;97086.47;4994455;28;20509;-72
2021/01/25 01:05:05;;;;;;;5.70;2.15;;;;;;;-0.81;76.01;97093.38;4995084;28;20026;-70
2021/01/25 01:07:31;;;;;;;3.85;1.90;;;;;;;-0.77;75.95;97107.94;4993911;28;20026;-70
2021/01/25 01:09:56;;;;;;;2.78;1.55;;;;;;;-0.82;76.14;97107.63;4988072;28;20038;-70
2021/01/25 01:12:21;;;;;;;2.35;1.33;;;;;;;-0.80;75.84;97120.75;4978172;28;20496;-75
2021/01/25 01:14:47;;;;;;;2.63;1.52;;;;;;;-0.69;75.47;97120.34;5011450;28;20030;-74
2021/01/25 01:17:12;;;;;;;3.65;1.58;;;;;;;-0.63;75.44;97111.66;5016176;28;20053;-71
2021/01/25 01:19:37;;;;;;;2.88;1.58;;;;;;;-0.63;74.60;97098.38;5016048;28;20045;-71
2021/01/25 01:22:02;;;;;;;3.83;1.85;;;;;;;-0.56;74.38;97099.34;5005631;28;20050;-71
2021/01/25 01:24:28;;;;;;;4.30;1.58;;;;;;;-0.46;73.91;97110.59;5010917;28;20101;-72
2021/01/25 01:26:53;;;;;;;3.40;1.75;;;;;;;-0.43;73.87;97098.78;5015686;28;20058;-75
2021/01/25 01:29:18;;;;;;;5.45;1.95;;;;;;;-0.45;73.69;97100.78;5005268;28;20033;-71
2021/01/25 01:31:44;;;;;;;2.80;1.80;;;;;;;-0.54;73.98;97100.00;4994471;28;20099;-70
2021/01/25 01:34:10;;;;;;;4.10;1.70;;;;;;;-0.65;74.84;97094.28;4975190;28;20026;-74
2021/01/25 01:36:35;;;;;;;5.00;2.03;;;;;;;-0.46;74.34;97096.47;4982581;28;20517;-70
2021/01/25 01:39:00;;;;;;;2.83;1.70;;;;;;;-0.48;73.44;97082.53;4986621;28;20102;-71
2021/01/25 01:41:26;;;;;;;4.70;1.95;;;;;;;-0.38;73.47;97093.75;4975113;28;20026;-70
2021/01/25 01:43:51;;;;;;;6.53;1.60;;;;;;;-0.39;72.61;97076.19;4986032;28;20538;-70
2021/01/25 01:46:17;;;;;;;4.85;1.50;;;;;;;-0.42;71.79;97075.69;4979555;28;20034;-73
2021/01/25 01:48:42;;;;;;;5.10;1.88;;;;;;;-0.36;71.96;97089.09;4975822;28;20033;-70
2021/01/25 01:51:08;;;;;;;3.05;1.55;;;;;;;-0.30;71.50;97080.41;4981822;28;20698;-70
2021/01/25 01:53:33;;;;;;;4.22;1.67;;;;;;;-0.39;72.56;97080.66;4992225;28;20029;-71
2021/01/25 01:55:59;;;;;;;2.90;1.45;;;;;;;-0.39;72.50;97078.84;4983786;28;20114;-73
2021/01/25 01:58:27;;;;;;;2.47;1.50;;;;;;;-0.61;73.59;97056.56;4976928;28;20497;-70
2021/01/25 02:00:53;;;;;;;5.43;1.55;;;;;;;-0.63;74.47;97069.19;4981587;28;20381;-70
2021/01/25 02:03:19;;;;;;;3.55;2.03;;;;;;;-0.58;75.06;97071.31;4976673;28;20031;-70
2021/01/25 02:05:44;;;;;;;4.38;2.00;;;;;;;-0.61;74.98;97066.34;4981570;28;20030;-71
2021/01/25 02:08:11;;;;;;;5.25;1.98;;;;;;;-0.67;74.70;97062.56;4993868;28;20031;-70
2021/01/25 02:10:37;;;;;;;3.88;1.70;;;;;;;-0.72;74.17;97063.09;4993832;28;20093;-70
2021/01/25 02:13:03;;;;;;;3.63;1.63;;;;;;;-0.72;74.44;97067.59;4993688;28;20122;-71
2021/01/25 02:15:30;;;;;;;5.07;1.90;;;;;;;-0.74;75.10;97051.81;4990679;28;20026;-71
2021/01/25 02:17:56;;;;;;;2.72;1.52;;;;;;;-0.67;74.59;97067.88;4993655;28;20539;-71
2021/01/25 02:20:34;;;;;;;3.42;1.42;;;;;;;-0.71;74.35;97061.25;4981248;28;20041;-71
2021/01/25 02:23:07;;;;;;;3.10;1.70;;;;;;;-0.71;74.06;97067.44;4986438;28;20420;-71
2021/01/25 02:25:45;;;;;;;1.77;1.25;;;;;;;-0.67;74.53;97046.66;4973955;28;20423;-71
2021/01/25 02:28:10;;;;;;;2.47;1.17;;;;;;;-0.61;74.13;97061.03;4975038;28;20080;-71
2021/01/25 02:30:37;;;;;;;2.67;1.63;;;;;;;-0.63;73.46;97052.41;4974598;28;20030;-71
2021/01/25 02:33:03;;;;;;;3.35;1.50;;;;;;;-0.57;75.50;97046.44;4987242;28;20388;-71
2021/01/25 02:35:29;;;;;;;3.20;1.60;;;;;;;-0.72;76.13;97049.81;4979369;28;20030;-71
2021/01/25 02:37:56;;;;;;;3.75;1.83;;;;;;;-0.73;76.94;97037.56;4989374;28;20042;-71
2021/01/25 02:40:23;;;;;;;5.85;2.20;;;;;;;-0.77;76.81;97054.00;4991913;28;20033;-71
2021/01/25 02:42:52;;;;;;;6.35;2.15;;;;;;;-0.83;77.47;97050.22;4983457;28;20279;-71
2021/01/25 02:45:18;;;;;;;5.93;2.13;;;;;;;-0.92;78.16;97056.56;4990670;28;20057;-71
2021/01/25 02:48:04;;;;;;;3.20;1.92;;;;;;;-1.02;78.92;97045.34;4982010;28;20501;-71
2021/01/25 02:50:29;;;;;;;4.15;1.92;;;;;;;-1.04;78.96;97050.00;4978122;28;20501;-71
2021/01/25 02:52:55;;;;;;;3.45;2.03;;;;;;;-1.13;80.17;97051.84;4991303;28;20117;-71
2021/01/25 02:55:20;;;;;;;3.65;2.03;;;;;;;-1.19;80.11;97049.91;4988997;28;20033;-71
2021/01/25 02:57:46;;;;;;;4.22;1.95;;;;;;;-1.14;79.49;97056.34;4980390;28;20098;-71
2021/01/25 03:00:12;;;;;;;2.33;1.58;;;;;;;-1.06;78.27;97060.78;4989008;28;20050;-71
2021/01/25 03:02:38;;;;;;;2.50;1.60;;;;;;;-0.86;78.04;97045.28;4982445;28;20376;-71
2021/01/25 03:05:05;;;;;;;3.22;1.67;;;;;;;-0.91;76.25;97034.34;4990121;28;20026;-71
2021/01/25 03:07:30;;;;;;;4.45;1.85;;;;;;;-0.78;76.79;97057.69;4982681;28;20034;-71
2021/01/25 03:10:00;;;;;;;3.58;1.83;;;;;;;-0.73;76.77;97056.16;4980435;28;20097;-71
2021/01/25 03:12:26;;;;;;;4.20;1.70;;;;;;;-0.62;73.47;97067.38;4977128;28;20027;-71
2021/01/25 03:14:51;;;;;;;5.30;2.45;;;;;;;-0.58;74.18;97061.50;4987144;28;20407;-71
2021/01/25 03:17:16;;;;;;;5.85;2.80;;;;;;;-0.50;74.46;97065.94;4996476;28;20034;-71
2021/01/25 03:19:42;;;;;;;10.32;3.83;;;;;;;-0.56;74.62;97048.06;4978294;28;20026;-71
2021/01/25 03:22:07;;;;;;;4.57;2.15;;;;;;;-0.44;74.79;97067.91;4991757;28;20022;-71
2021/01/25 03:24:33;;;;;;;4.25;2.03;;;;;;;-0.46;73.80;97077.88;4978377;28;20030;-71
2021/01/25 03:26:58;;;;;;;3.08;1.65;;;;;;;-0.52;73.91;97070.63;4977587;28;20090;-71
2021/01/25 03:29:23;;;;;;;2.58;1.48;;;;;;;-0.48;73.47;97067.41;4992122;28;20058;-71
2021/01/25 03:31:48;;;;;;;4.35;1.58;;;;;;;-0.55;73.39;97073.63;4996041;28;20611;-70
2021/01/25 03:34:14;;;;;;;2.80;1.35;;;;;;;-0.54;72.76;97073.44;4990600;28;20038;-71
2021/01/25 03:36:39;;;;;;;3.00;1.40;;;;;;;-0.62;72.99;97064.72;4977270;28;20106;-71
2021/01/25 03:39:05;;;;;;;4.95;1.48;;;;;;;-0.44;73.31;97086.50;4977079;28;20402;-71
2021/01/25 03:41:31;;;;;;;3.58;1.55;;;;;;;-0.51;73.79;97080.25;4978089;28;20029;-70
2021/01/25 03:43:56;;;;;;;2.80;1.40;;;;;;;-0.42;74.82;97086.31;4977958;28;20058;-71
2021/01/25 03:46:21;;;;;;;3.25;1.60;;;;;;;-0.57;76.34;97078.31;4980338;28;20027;-71
2021/01/25 03:48:47;;;;;;;1.85;1.25;;;;;;;-0.50;77.50;97098.66;4985694;28;20049;-71
2021/01/25 03:51:12;;;;;;;3.55;1.60;;;;;;;-0.73;78.71;97087.19;4980979;28;20042;-71
2021/01/25 03:53:38;;;;;;;7.72;1.63;;;;;;;-0.88;79.92;97103.00;4977310;28;20035;-71
2021/01/25 03:56:03;;;;;;;5.93;1.95;;;;;;;-1.15;82.10;97106.94;4981117;28;20038;-71
2021/01/25 03:58:29;;;;;;;5.93;2.10;;;;;;;-1.21;83.39;97108.44;5004759;28;20077;-71
2021/01/25 04:00:54;;;;;;;3.15;1.75;;;;;;;-1.21;83.64;97102.31;4996717;28;20100;-71
2021/01/25 04:03:20;;;;;;;3.03;1.70;;;;;;;-1.32;84.72;97112.28;4986151;28;20384;-70
2021/01/25 04:05:46;;;;;;;3.90;2.00;;;;;;;-1.31;85.15;97107.84;4986756;28;20678;-71
2021/01/25 04:08:11;;;;;;;3.83;1.80;;;;;;;-1.36;85.52;97112.81;4978077;28;20491;-70
2021/01/25 04:10:36;;;;;;;3.85;2.13;;;;;;;-1.27;85.78;97103.00;4976523;28;20026;-71
2021/01/25 04:13:02;;;;;;;3.60;2.10;;;;;;;-1.27;86.01;97118.91;4991832;28;20029;-70
2021/01/25 04:15:27;;;;;;;4.18;2.10;;;;;;;-1.40;86.78;97101.69;4995486;28;20034;-70
2021/01/25 04:17:52;;;;;;;3.72;2.20;;;;;;;-1.25;87.09;97119.59;4995535;28;20030;-70
2021/01/25 04:20:18;;;;;;;4.70;2.45;;;;;;;-1.39;87.07;97116.63;4995721;28;20109;-70
2021/01/25 04:22:43;;;;;;;4.68;2.22;;;;;;;-1.35;87.62;97117.13;5003225;28;20022;-70
2021/01/25 04:25:09;;;;;;;4.35;2.47;;;;;;;-1.48;88.24;97106.22;4995520;28;20026;-72
2021/01/25 04:27:34;;;;;;;5.53;2.53;;;;;;;-1.30;88.57;97116.63;4981326;28;20027;-72
2021/01/25 04:30:01;;;;;;;4.05;2.33;;;;;;;-1.21;87.56;97119.06;4990555;28;20459;-69
2021/01/25 04:32:26;;;;;;;4.03;2.22;;;;;;;-1.29;87.86;97115.59;4982666;28;20026;-73
2021/01/25 04:34:52;;;;;;;6.32;2.33;;;;;;;-1.24;88.04;97119.41;4988871;28;20050;-70
2021/01/25 04:37:18;;;;;;;3.70;2.40;;;;;;;-1.45;88.20;97100.56;4994429;28;20045;-69
2021/01/25 04:39:43;;;;;;;4.72;2.35;;;;;;;-1.26;88.85;97118.72;4995042;28;20030;-70
2021/01/25 04:42:09;;;;;;;5.85;2.85;;;;;;;-1.14;88.42;97119.22;4995306;28;20030;-70
2021/01/25 04:44:36;;;;;;;4.32;1.95;;;;;;;-1.21;88.41;97113.75;4988822;28;20061;-70
2021/01/25 04:47:02;;;;;;;5.57;2.50;;;;;;;-1.24;88.93;97114.09;4975723;28;20084;-72
2021/01/25 04:49:28;;;;;;;3.80;2.40;;;;;;;-1.24;89.74;97122.06;4981715;28;20392;-71
2021/01/25 04:51:54;;;;;;;4.60;2.55;;;;;;;-1.22;89.89;97117.41;4996141;28;20037;-71
2021/01/25 04:54:21;;;;;;;5.43;2.72;;;;;;;-1.25;89.72;97115.09;4992633;28;20492;-71
2021/01/25 04:56:47;;;;;;;4.72;2.38;;;;;;;-1.27;89.97;97117.09;4994598;28;20019;-71
2021/01/25 04:59:13;;;;;;;3.17;2.10;;;;;;;-1.26;89.30;97120.56;4989264;28;20035;-75
2021/01/25 05:01:38;;;;;;;5.63;2.80;;;;;;;-1.33;89.22;97100.03;4998215;28;20227;-75
2021/01/25 05:04:03;;;;;;;6.50;2.35;;;;;;;-1.19;88.68;97106.44;4989602;28;20492;-74
2021/01/25 05:06:29;;;;;;;5.78;2.75;;;;;;;-1.19;88.29;97113.59;4989314;28;20026;-78
2021/01/25 05:08:54;;;;;;;4.47;2.40;;;;;;;-1.36;88.53;97099.56;4993886;28;20025;-77
2021/01/25 05:11:20;;;;;;;4.82;2.22;;;;;;;-1.30;88.70;97112.13;4993810;28;20034;-76
2021/01/25 05:13:46;;;;;;;8.25;2.80;;;;;;;-1.33;89.28;97115.94;4993564;28;20485;-74
2021/01/25 05:16:20;;;;;;;5.90;2.55;;;;;;;-1.14;89.63;97122.69;4993686;28;20040;-75
2021/01/25 05:19:15;;;;;;;5.03;2.60;;;;;;;-1.21;88.89;97127.00;4981586;28;20041;-73
2021/01/25 05:21:42;;;;;;;6.28;2.78;;;;;;;-1.30;88.98;97120.09;4976933;28;20035;-73
2021/01/25 05:24:10;;;;;;;5.30;2.60;;;;;;;-1.04;88.56;97119.03;4993281;28;20030;-72
2021/01/25 05:26:39;;;;;;;5.20;2.95;;;;;;;-1.14;88.63;97116.56;4994491;28;20030;-75
2021/01/25 05:29:05;;;;;;;9.32;3.13;;;;;;;-1.32;88.72;97100.84;4996674;28;20033;-75
2021/01/25 05:31:30;;;;;;;4.50;2.80;;;;;;;-1.35;88.62;97111.81;4994886;28;20034;-77
2021/01/25 05:33:55;;;;;;;4.93;3.00;;;;;;;-1.32;89.31;97106.16;4994313;28;20018;-76
2021/01/25 05:36:24;;;;;;;5.30;2.97;;;;;;;-0.97;88.39;97126.13;5000464;28;20073;-75
2021/01/25 05:38:51;;;;;;;3.80;2.22;;;;;;;-1.18;87.80;97118.75;4986424;28;20366;-75
2021/01/25 05:41:18;;;;;;;6.00;3.22;;;;;;;-1.16;88.13;97127.31;4986205;28;20120;-75
2021/01/25 05:43:44;;;;;;;6.32;3.17;;;;;;;-1.28;88.44;97099.53;4991563;28;20031;-74
2021/01/25 05:46:12;;;;;;;7.85;3.47;;;;;;;-1.04;88.86;97126.97;4979406;28;20061;-73
2021/01/25 05:48:39;;;;;;;6.00;3.47;;;;;;;-1.13;87.83;97116.41;4994595;28;20022;-75
2021/01/25 05:51:18;;;;;;;7.95;3.58;;;;;;;-1.25;88.66;97101.84;5007618;28;20057;-75
2021/01/25 05:53:45;;;;;;;7.32;3.53;;;;;;;-1.24;89.09;97103.47;4989711;28;20484;-74
2021/01/25 05:56:13;;;;;;;7.13;3.58;;;;;;;-1.16;89.20;97135.28;4993047;28;20045;-74
2021/01/25 05:58:39;;;;;;;8.15;3.33;;;;;;;-1.29;89.37;97121.72;4993113;28;20518;-70
2021/01/25 06:01:05;;;;;;;8.60;3.38;;;;;;;-1.19;89.79;97126.84;4992703;28;20030;-71
2021/01/25 06:03:39;;;;;;;4.88;3.08;;;;;;;-1.22;90.27;97128.03;4991986;28;20086;-70
2021/01/25 06:06:09;;;;;;;5.28;3.20;;;;;;;-1.23;90.34;97134.34;4993444;28;20080;-70
2021/01/25 06:08:47;;;;;;;5.65;3.10;;;;;;;-1.18;90.03;97139.97;4975581;28;20030;-68
2021/01/25 06:11:21;;;;;;;4.25;2.83;;;;;;;-1.20;90.39;97130.50;4979231;28;20053;-75
2021/01/25 06:13:53;;;;;;;5.30;3.85;;;;;;;-1.13;90.79;97137.63;4991126;28;20027;-78
2021/01/25 06:16:24;;;;;;;7.60;3.35;;;;;;;-1.22;90.46;97127.19;4991295;28;20026;-75
2021/01/25 06:18:50;;;;;;;9.35;4.57;;;;;;;-1.14;90.00;97143.09;4999181;28;20080;-77
2021/01/25 06:21:24;;;;;;;10.85;3.55;;;;;;;-1.26;90.40;97126.69;4999850;28;20022;-78
2021/01/25 06:23:52;;;;;;;7.07;3.33;;;;;;;-1.26;90.20;97134.66;4994987;28;20049;-75
2021/01/25 06:26:17;;;;;;;5.55;3.63;;;;;;;-1.13;89.83;97147.38;4995019;28;20022;-73
2021/01/25 06:28:43;;;;;;;6.28;3.25;;;;;;;-1.18;90.30;97160.34;4995139;28;20024;-77
2021/01/25 06:31:09;;;;;;;6.57;3.50;;;;;;;-1.24;90.30;97140.63;5006223;28;20058;-74
2021/01/25 06:33:37;;;;;;;5.00;3.10;;;;;;;-1.17;90.53;97157.53;5011876;28;20022;-76
2021/01/25 06:36:07;;;;;;;6.18;3.47;;;;;;;-1.31;90.65;97134.38;5010364;28;20030;-74
2021/01/25 06:38:33;;;;;;;;;;;;;;;-1.17;90.78;97162.00;5014122;28;20034;-77
2021/01/25 06:41:08;;;;;;;5.35;3.20;;;;;;;-1.17;90.74;97162.00;5012763;28;19945;-70
2021/01/25 06:43:33;;;;;;;7.30;3.85;;;;;;;-1.34;90.80;97138.19;5006759;28;20066;-72
2021/01/25 06:45:59;;;;;;;6.72;3.65;;;;;;;-1.16;90.29;97164.47;5009081;28;20010;-80
2021/01/25 06:48:24;;;;;;;7.40;4.00;;;;;;;-1.13;90.27;97161.50;5002900;28;20066;-80
2021/01/25 06:50:50;;;;;;;7.57;3.42;;;;;;;-1.21;90.45;97150.91;4994259;28;20574;-75
2021/01/25 06:53:15;;;;;;;9.48;3.50;;;;;;;-1.19;89.91;97164.81;4991878;28;20023;-70
2021/01/25 06:55:43;;;;;;;5.32;3.45;;;;;;;-1.23;89.68;97158.22;4979911;28;20022;-75
2021/01/25 06:58:12;;;;;;;8.35;3.88;;;;;;;-1.22;89.79;97157.22;4993711;28;20065;-76
2021/01/25 07:00:39;;;;;;;7.68;4.03;;;;;;;-1.19;90.38;97170.13;4991744;28;20080;-73
2021/01/25 07:03:06;;;;;;;6.50;4.05;;;;;;;-1.15;90.08;97182.06;4991496;28;20022;-72
2021/01/25 07:05:38;;;;;;;5.75;3.83;;;;;;;-1.20;90.25;97178.28;4994932;28;20388;-71
2021/01/25 07:08:24;;;;;;;7.43;4.43;;;;;;;-1.05;89.84;97196.97;4985961;28;20396;-73
2021/01/25 07:10:54;;;;;;;9.50;4.00;;;;;;;-1.07;89.92;97194.50;4990730;28;20508;-74
2021/01/25 07:13:22;;;;;;;10.00;4.45;;;;;;;-1.12;89.55;97197.66;4984076;28;20570;-74
2021/01/25 07:15:48;;;;;;;9.18;4.97;;;;;;;-0.97;89.48;97200.44;4992955;28;20507;-72
2021/01/25 07:18:13;;;;;;;8.15;4.80;;;;;;;-0.93;88.61;97187.66;4995354;28;20018;-72
2021/01/25 07:20:38;;;;;;;11.90;5.13;;;;;;;-0.88;88.25;97188.78;4992988;28;20034;-74
2021/01/25 07:23:07;;;;;;;16.40;6.65;;;;;;;-0.78;88.09;97211.69;4988060;28;20029;-73
2021/01/25 07:25:32;;;;;;;11.20;4.28;;;;;;;-0.85;88.25;97192.09;4992952;28;20022;-76
2021/01/25 07:28:03;;;;;;;11.60;5.75;;;;;;;-0.64;88.59;97220.75;4991757;28;20084;-75
2021/01/25 07:30:32;;;;;;;11.20;4.90;;;;;;;-0.65;88.07;97203.16;4994308;28;20040;-77
2021/01/25 07:33:06;;;;;;;;;;;;;;;-0.50;87.93;97231.50;4996775;28;20026;-77
2021/01/25 07:36:00;;;;;;;8.45;3.88;;;;;;;-0.41;87.78;97237.59;4986572;28;19910;-84
2021/01/25 07:38:30;;;;;;;9.40;4.57;;;;;;;-0.47;87.35;97227.66;4992783;28;20034;-74
2021/01/25 07:40:59;;;;;;;10.52;4.90;;;;;;;-0.40;87.73;97246.38;4992795;28;20030;-73
2021/01/25 07:43:27;;;;;;;8.48;5.00;;;;;;;-0.50;87.97;97227.97;4991742;28;20030;-79
2021/01/25 07:45:54;;;;;;;11.60;6.07;;;;;;;-0.45;87.36;97236.25;4983141;28;20065;-78
2021/01/25 07:48:20;;;;;;;7.25;4.85;;;;;;;-0.38;87.05;97234.59;4990149;28;20596;-76
2021/01/25 07:50:57;;;;;;;7.75;5.05;;;;;;;-0.27;86.79;97252.78;4987422;28;20026;-73
2021/01/25 07:53:22;;;;;;;11.13;5.05;;;;;;;-0.26;86.83;97245.66;4995563;28;20388;-71
2021/01/25 07:55:49;;;;;;;9.55;5.18;;;;;;;-0.16;86.50;97261.38;4986876;28;20030;-69
2021/01/25 07:58:14;;;;;;;6.70;4.43;;;;;;;-0.08;86.63;97264.84;4990590;28;20552;-68
2021/01/25 08:00:43;;;;;;;7.78;4.47;;;;;;;0.17;86.29;97267.38;4988918;28;20038;-68
2021/01/25 08:03:21;;;;;;;6.65;4.10;;;;;;;0.20;85.02;97267.00;4993770;28;20046;-68
2021/01/25 08:05:52;;;;;;;8.05;4.03;;;;;;;0.01;84.66;97232.91;4988922;28;20038;-68
2021/01/25 08:08:18;;;;;;;8.25;4.90;;;;;;;0.19;84.93;97270.69;4988807;28;20073;-67
2021/01/25 08:10:44;;;;;;;11.88;5.60;;;;;;;0.42;84.38;97265.38;4994849;28;20198;-67
2021/01/25 08:13:16;;;;;;;11.38;5.30;;;;;;;0.36;83.86;97274.06;4996455;28;20053;-67
2021/01/25 08:15:54;;;;;;;10.60;5.45;;;;;;;0.40;83.74;97272.72;5008945;28;20034;-71
2021/01/25 08:18:25;;;;;;;10.02;5.60;;;;;;;0.43;83.62;97270.50;5014040;28;20053;-70
2021/01/25 08:20:56;;;;;;;9.18;4.43;;;;;;;0.43;83.85;97259.88;5018671;28;20045;-77
2021/01/25 08:23:24;;;;;;;10.38;5.45;;;;;;;0.31;83.65;97265.78;5015451;28;20022;-74
2021/01/25 08:25:59;;;;;;;10.43;5.05;;;;;;;0.37;84.38;97270.41;5016542;28;20088;-77
2021/01/25 08:28:29;;;;;;;8.57;5.07;;;;;;;0.31;84.85;97268.44;5010494;28;20023;-71
2021/01/25 08:31:10;;;;;;;13.00;5.20;;;;;;;0.18;84.94;97284.97;4995951;28;20041;-69
2021/01/25 08:33:38;;;;;;;10.85;5.13;;;;;;;0.26;85.24;97287.56;4977879;28;20507;-77
2021/01/25 08:36:05;;;;;;;7.88;5.25;;;;;;;0.20;85.42;97294.41;4995020;28;20432;-77
2021/01/25 08:38:44;;;;;;;10.18;4.57;;;;;;;0.12;85.69;97299.78;5000278;28;20053;-76
2021/01/25 08:41:23;;;;;;;9.38;4.88;;;;;;;-0.01;85.96;97296.88;4991453;28;20443;-76
2021/01/25 08:43:53;;;;;;;;;;;;;;;0.04;86.24;97302.50;4994163;28;20097;-74
2021/01/25 08:46:25;;;;;;;8.25;4.20;;;;;;;0.03;86.17;97287.56;4996974;28;19910;-77
2021/01/25 08:48:51;;;;;;;8.40;4.25;;;;;;;0.08;85.91;97301.16;4998420;28;20030;-76
2021/01/25 08:51:28;;;;;;;9.07;4.97;;;;;;;0.26;86.02;97316.00;5000861;28;20053;-75
2021/01/25 08:54:03;;;;;;;7.63;4.47;;;;;;;0.41;85.21;97322.25;4995305;28;20029;-75
2021/01/25 08:56:38;;;;;;;10.60;5.38;;;;;;;0.19;85.41;97321.22;4994785;28;20105;-76
2021/01/25 08:59:13;;;;;;;8.60;5.20;;;;;;;0.47;85.80;97332.16;5008617;28;20073;-76
2021/01/25 09:01:41;;;;;;;14.35;5.47;;;;;;;0.77;84.68;97322.50;4984696;28;20131;-78
2021/01/25 09:04:07;;;;;;;11.80;5.43;;;;;;;0.90;83.61;97311.25;4994063;28;20491;-76
2021/01/25 09:06:38;;;;;;;10.82;4.85;;;;;;;1.17;81.79;97333.00;4998260;28;20030;-73
2021/01/25 09:09:04;;;;;;;7.82;5.43;;;;;;;1.15;81.69;97330.50;5004660;28;20036;-75
2021/01/25 09:11:29;;;;;;;10.50;5.38;;;;;;;1.35;80.93;97327.34;4993525;28;20031;-73
2021/01/25 09:13:54;;;;;;;12.57;5.18;;;;;;;1.96;79.63;97347.53;4990612;28;20499;-80
2021/01/25 09:16:20;;;;;;;9.38;5.40;;;;;;;2.19;77.72;97306.53;5004213;28;20077;-76
2021/01/25 09:18:45;;;;;;;10.43;5.07;;;;;;;2.84;76.41;97337.66;4996386;28;20038;-77
2021/01/25 09:21:10;;;;;;;8.50;4.32;;;;;;;3.03;74.89;97316.66;4993232;28;20105;-77
2021/01/25 09:23:36;;;;;;;8.82;5.97;;;;;;;3.17;75.12;97342.50;4995759;28;20049;-75
2021/01/25 09:26:01;;;;;;;8.77;6.35;;;;;;;3.10;75.01;97338.91;4997265;28;20481;-75
2021/01/25 09:28:27;;;;;;;10.10;5.93;;;;;;;2.87;75.51;97333.78;4993802;28;20026;-78
2021/01/25 09:30:52;;;;;;;8.82;5.97;;;;;;;2.76;76.62;97361.81;5009530;28;20030;-74
2021/01/25 09:33:17;;;;;;;11.48;6.05;;;;;;;2.44;78.72;97335.56;4992111;28;20084;-75
2021/01/25 09:35:43;;;;;;;9.73;6.18;;;;;;;2.49;77.05;97365.19;4970803;28;554801;-72
2021/01/25 09:38:08;;;;;;;10.85;6.30;;;;;;;2.24;77.59;97341.50;4993505;28;20037;-79
2021/01/25 09:40:34;;;;;;;9.85;6.00;;;;;;;2.57;78.30;97378.44;4994130;28;20038;-74
2021/01/25 09:43:00;;;;;;;12.73;6.00;;;;;;;2.50;77.46;97375.69;4993846;28;20026;-77
2021/01/25 09:45:26;;;;;;;9.80;5.88;;;;;;;2.38;78.15;97369.16;4987869;28;20034;-75
2021/01/25 09:47:52;;;;;;;10.63;5.38;;;;;;;2.37;78.32;97389.69;4974268;28;20392;-75
2021/01/25 09:50:18;;;;;;;10.10;5.97;;;;;;;2.01;79.71;97394.97;4992527;28;20022;-75
2021/01/25 09:52:45;;;;;;;15.02;7.40;;;;;;;1.61;81.04;97389.03;4991353;28;20042;-72
2021/01/25 09:55:13;;;;;;;13.20;6.80;;;;;;;1.43;81.04;97377.88;4994316;28;20030;-74
2021/01/25 09:57:38;;;;;;;13.77;7.35;;;;;;;1.13;81.72;97379.63;4989430;28;20159;-73
2021/01/25 10:00:09;;;;;;;12.48;7.43;;;;;;;1.31;82.07;97404.97;4994345;28;20054;-76
2021/01/25 10:02:35;;;;;;;13.70;8.02;;;;;;;0.99;82.93;97382.06;4991973;28;20105;-78
2021/01/25 10:05:01;;;;;;;15.20;8.77;;;;;;;1.19;83.15;97402.91;4992990;28;22505;-74
2021/01/25 10:07:26;;;;;;;14.63;7.43;;;;;;;1.08;82.72;97378.34;4993870;28;20056;-74
2021/01/25 10:09:54;;;;;;;16.90;8.45;;;;;;;1.11;83.26;97403.78;4992688;28;20049;-76
2021/01/25 10:12:21;;;;;;;14.15;9.25;;;;;;;1.24;83.09;97405.88;4991993;28;20122;-71
2021/01/25 10:14:47;;;;;;;14.57;7.88;;;;;;;1.24;81.96;97397.88;4993419;28;20061;-71
2021/01/25 10:17:12;;;;;;;13.68;8.40;;;;;;;1.56;82.22;97426.06;4992430;28;20062;-73
2021/01/25 10:19:37;;;;;;;13.80;8.15;;;;;;;1.60;82.09;97422.06;4974618;28;20086;-75
2021/01/25 10:22:03;;;;;;;14.15;7.97;;;;;;;1.51;82.26;97428.44;4983237;28;20023;-74
2021/01/25 10:24:28;;;;;;;15.48;8.25;;;;;;;1.54;81.67;97404.91;4991441;28;20403;-76
2021/01/25 10:26:53;;;;;;;15.98;7.95;;;;;;;1.65;81.33;97413.50;4974531;28;20031;-75
2021/01/25 10:29:18;;;;;;;14.25;8.07;;;;;;;1.85;80.36;97433.28;4984024;28;20030;-71
2021/01/25 10:31:44;;;;;;;14.75;7.95;;;;;;;1.64;81.48;97423.34;4987575;28;20044;-75
2021/01/25 10:34:09;;;;;;;13.38;8.48;;;;;;;1.75;81.77;97436.22;4994024;28;20076;-75
2021/01/25 10:36:34;;;;;;;14.75;8.35;;;;;;;1.82;80.86;97432.84;4992673;28;20496;-73
2021/01/25 10:39:00;;;;;;;13.13;7.97;;;;;;;2.10;80.22;97425.06;4978579;28;20067;-79
2021/01/25 10:41:25;;;;;;;15.70;8.68;;;;;;;1.86;80.23;97428.78;4980926;28;20110;-75
2021/01/25 10:43:50;;;;;;;14.27;8.18;;;;;;;1.88;80.63;97448.94;5001830;28;20068;-73
2021/01/25 10:46:17;;;;;;;13.68;9.05;;;;;;;2.02;80.27;97430.44;4974698;28;20034;-76
2021/01/25 10:48:43;;;;;;;14.52;8.68;;;;;;;2.16;81.42;97456.31;4994534;28;20052;-73
2021/01/25 10:51:09;;;;;;;15.43;8.30;;;;;;;2.18;79.63;97438.31;4992570;28;20462;-76
2021/01/25 10:53:34;;;;;;;16.60;9.07;;;;;;;2.31;79.25;97459.00;4981166;28;20045;-73
2021/01/25 10:56:00;;;;;;;15.35;8.35;;;;;;;1.83;80.73;97445.16;4985471;28;20474;-75
2021/01/25 10:58:25;;;;;;;16.42;7.78;;;;;;;1.38;82.70;97446.88;5005965;28;20030;-78
2021/01/25 11:00:51;;;;;;;16.40;8.63;;;;;;;1.15;83.53;97465.53;4995897;28;20040;-77
2021/01/25 11:03:19;;;;;;;14.55;9.50;;;;;;;0.95;84.95;97458.00;5004103;28;20045;-75
2021/01/25 11:05:44;;;;;;;22.55;9.95;;;;;;;0.81;85.48;97466.72;4993443;28;20034;-68
2021/01/25 11:08:10;;;;;;;19.48;10.75;;;;;;;0.64;86.17;97450.00;4989452;28;20030;-73
2021/01/25 11:10:35;;;;;;;20.52;11.02;;;;;;;0.77;86.65;97460.94;4993836;28;20031;-74
2021/01/25 11:13:00;;;;;;;22.65;11.30;;;;;;;0.78;86.01;97443.13;4994107;28;20027;-73
2021/01/25 11:15:26;;;;;;;21.40;10.68;;;;;;;0.97;85.84;97471.13;4999574;28;20444;-75
2021/01/25 11:17:51;;;;;;;18.50;10.38;;;;;;;1.20;84.93;97473.81;4991439;28;20034;-75
2021/01/25 11:20:17;;;;;;;18.02;10.50;;;;;;;1.32;85.08;97480.41;4991652;28;20098;-76
2021/01/25 11:22:42;;;;;;;21.38;10.55;;;;;;;1.57;84.06;97488.19;4993235;28;20166;-75
2021/01/25 11:25:09;;;;;;;15.43;9.52;;;;;;;1.41;84.42;97465.16;4991702;28;20054;-76
2021/01/25 11:27:34;;;;;;;17.10;10.25;;;;;;;1.61;84.78;97484.19;4984596;28;20108;-71
2021/01/25 11:29:59;;;;;;;15.77;9.30;;;;;;;1.82;84.12;97473.66;5000794;28;20516;-76
2021/01/25 11:32:25;;;;;;;18.80;10.32;;;;;;;2.11;82.35;97483.56;4989679;28;20034;-68
2021/01/25 11:34:51;;;;;;;17.92;8.88;;;;;;;2.22;81.29;97468.09;5009630;28;20084;-66